»·PEaware :: N253AW KPSP-KIFP

N253AW :: KPSP-KIFP

FLIGHT INFORMATION

Flight Status: Arrived
Operator: Privately registered:
United States
More flights under this callsign
Pilot: Dean S. (16265)
Aircraft: CESSNA 182 SKYLANE
(C182)
More flights by this aircraft type
Origin: KPSP Palm Springs Intl
United States
Destination: KIFP Laughlin/Bullhead Intl
United States
More flights between these airports :: More routes between these airports
Route: GARNE V370 TNP EED
File this flight plan on PilotEdge
Remarks:
Altitude:
(Current/Filed)
7,500ft
Speed:
(Current/Filed)
140kts
Departed: 01-Oct-17 04:02 PM
Arrived: 01-Oct-17 05:06 PM
Distance/Time
Traveled:
125nm/1:03
Distance/Time
To Go:
Arrived

Flight Plot

Page will automatically refresh every two minutes.

Flight plan parsing failed; only flown route is shown


Map Options




Map Legend


Flown Route
Filed Route
Departure Airport
Arrival Airport
Navaid (VOR, NDB)
Fix

Horizontal Profiles

Position Reports

Time Latitude Longitude Heading Altitude Ground
Speed
01-Oct-17 15:44 33.825137 -116.508747 86 480ft 0kts
01-Oct-17 15:45 33.825137 -116.508746 86 480ft 0kts
01-Oct-17 15:46 33.825137 -116.508746 86 480ft 0kts
01-Oct-17 15:47 33.825137 -116.508742 86 480ft 0kts
01-Oct-17 15:48 33.825137 -116.508742 86 480ft 0kts
01-Oct-17 15:49 33.825137 -116.508742 86 480ft 0kts
01-Oct-17 15:50 33.825137 -116.508741 86 480ft 0kts
01-Oct-17 15:51 33.825137 -116.508741 86 480ft 0kts
01-Oct-17 15:52 33.825137 -116.508741 86 480ft 0kts
01-Oct-17 15:53 33.825137 -116.508740 86 480ft 0kts
01-Oct-17 15:54 33.825137 -116.508740 86 480ft 0kts
01-Oct-17 15:55 33.825137 -116.508739 86 480ft 0kts
01-Oct-17 15:56 33.825137 -116.508739 86 480ft 0kts
01-Oct-17 15:57 33.825137 -116.508739 86 480ft 0kts
01-Oct-17 15:58 33.825137 -116.508738 86 480ft 0kts
01-Oct-17 15:59 33.824462 -116.506742 92 480ft 5kts
01-Oct-17 16:00 33.823771 -116.504224 142 480ft 12kts
01-Oct-17 16:01 33.820467 -116.501231 139 480ft 13kts
01-Oct-17 16:02 33.817839 -116.498921 142 480ft 7kts
01-Oct-17 16:03 33.817527 -116.497930 56 480ft 0kts
01-Oct-17 16:04 33.817528 -116.497930 56 480ft 0kts
01-Oct-17 16:05 33.817623 -116.497750 57 480ft 4kts
01-Oct-17 16:06 33.819976 -116.499010 322 480ft 51kts
01-Oct-17 16:07 33.840908 -116.517063 324 1064ft 108kts
01-Oct-17 16:08 33.863893 -116.536557 322 2249ft 101kts
01-Oct-17 16:09 33.880303 -116.530535 114 3256ft 108kts
01-Oct-17 16:10 33.871198 -116.494414 105 4294ft 117kts
01-Oct-17 16:11 33.862683 -116.455693 93 5306ft 122kts
01-Oct-17 16:12 33.865718 -116.415153 53 6314ft 126kts
01-Oct-17 16:13 33.889361 -116.381953 58 7110ft 143kts
01-Oct-17 16:14 33.908905 -116.335304 65 7132ft 162kts
01-Oct-17 16:15 33.927770 -116.285757 65 7140ft 162kts
01-Oct-17 16:16 33.946612 -116.236248 65 7149ft 162kts
01-Oct-17 16:17 33.965386 -116.186908 65 7160ft 164kts
01-Oct-17 16:18 33.984315 -116.137146 65 7152ft 159kts
01-Oct-17 16:19 34.003008 -116.087995 65 7152ft 162kts
01-Oct-17 16:20 34.021899 -116.038313 65 7158ft 162kts
01-Oct-17 16:21 34.040720 -115.988804 65 7162ft 162kts
01-Oct-17 16:22 34.059552 -115.939257 65 7165ft 162kts
01-Oct-17 16:23 34.078439 -115.889552 65 7165ft 162kts
01-Oct-17 16:24 34.095657 -115.839230 77 7165ft 162kts
01-Oct-17 16:25 34.107181 -115.786517 72 7160ft 162kts
01-Oct-17 16:26 34.127514 -115.738033 55 7157ft 162kts
01-Oct-17 16:27 34.151218 -115.691536 60 7155ft 162kts
01-Oct-17 16:28 34.173665 -115.643897 60 7151ft 162kts
01-Oct-17 16:29 34.196034 -115.596386 60 7148ft 163kts
01-Oct-17 16:30 34.218403 -115.548863 60 7144ft 163kts
01-Oct-17 16:31 34.240843 -115.501176 60 7139ft 162kts
01-Oct-17 16:32 34.262741 -115.454629 60 7135ft 158kts
01-Oct-17 16:33 34.284541 -115.408279 60 7131ft 158kts
01-Oct-17 16:34 34.306207 -115.362201 60 7145ft 158kts
01-Oct-17 16:35 34.327927 -115.315997 60 7139ft 158kts
01-Oct-17 16:36 34.349722 -115.269621 60 7134ft 158kts
01-Oct-17 16:37 34.371443 -115.223389 60 7129ft 158kts
01-Oct-17 16:38 34.393244 -115.176976 60 7124ft 158kts
01-Oct-17 16:39 34.415906 -115.131394 56 7117ft 158kts
01-Oct-17 16:40 34.440240 -115.087056 56 7115ft 158kts
01-Oct-17 16:41 34.465917 -115.043668 51 7112ft 158kts
01-Oct-17 16:42 34.493355 -115.002036 51 7108ft 158kts
01-Oct-17 16:43 34.521634 -114.961040 48 7105ft 158kts
01-Oct-17 16:44 34.548910 -114.919243 52 7102ft 158kts
01-Oct-17 16:45 34.575094 -114.878032 52 7413ft 146kts
01-Oct-17 16:46 34.598281 -114.835338 65 7576ft 157kts
01-Oct-17 16:47 34.609167 -114.784073 56 7574ft 159kts
01-Oct-17 16:48 34.633406 -114.738997 57 7572ft 159kts
01-Oct-17 16:49 34.657022 -114.693180 58 7570ft 159kts
01-Oct-17 16:50 34.680130 -114.647179 58 7569ft 159kts
01-Oct-17 16:51 34.703084 -114.600779 59 7559ft 159kts
01-Oct-17 16:52 34.726417 -114.554943 58 7561ft 159kts
01-Oct-17 16:53 34.748461 -114.508196 61 7562ft 159kts
01-Oct-17 16:54 34.773190 -114.465592 356 7498ft 162kts
01-Oct-17 16:55 34.807781 -114.493423 333 7286ft 151kts
01-Oct-17 16:56 34.848094 -114.508578 351 6125ft 148kts
01-Oct-17 16:57 34.889357 -114.511137 10 4843ft 149kts
01-Oct-17 16:58 34.924775 -114.502312 5 3891ft 118kts
01-Oct-17 16:59 34.957366 -114.498530 9 3009ft 105kts
01-Oct-17 17:00 34.986289 -114.496494 358 2630ft 103kts
01-Oct-17 17:01 35.014226 -114.500368 356 2457ft 96kts
01-Oct-17 17:02 35.039676 -114.503289 345 2583ft 91kts
01-Oct-17 17:03 35.064988 -114.507826 351 2665ft 92kts
01-Oct-17 17:04 35.090120 -114.514280 358 2672ft 94kts
01-Oct-17 17:05 35.113844 -114.527681 324 2499ft 99kts
01-Oct-17 17:06 35.135951 -114.546581 342 1687ft 98kts
01-Oct-17 17:07 35.159996 -114.549087 352 1289ft 76kts
01-Oct-17 17:08 35.178831 -114.554529 293 1061ft 68kts
01-Oct-17 17:09 35.163858 -114.560097 175 698ft 54kts
01-Oct-17 17:10 35.161296 -114.559289 41 698ft 0kts
01-Oct-17 17:11 35.159804 -114.558511 177 698ft 14kts
01-Oct-17 17:12 35.157870 -114.556472 82 698ft 4kts
01-Oct-17 17:13 35.157895 -114.556386 66 698ft 0kts
01-Oct-17 17:14 35.157895 -114.556386 66 698ft 0kts
01-Oct-17 17:15 35.157895 -114.556386 66 698ft 0kts
01-Oct-17 17:16 35.157895 -114.556386 66 698ft 0kts
01-Oct-17 17:17 35.157895 -114.556386 66 698ft 0kts
01-Oct-17 17:18 35.157895 -114.556386 66 698ft 0kts
01-Oct-17 17:19 35.157895 -114.556386 66 698ft 0kts
01-Oct-17 17:20 35.157895 -114.556386 66 698ft 0kts
01-Oct-17 17:21 35.157895 -114.556386 66 698ft 0kts
01-Oct-17 17:22 35.157895 -114.556386 66 698ft 0kts
01-Oct-17 17:23 35.157895 -114.556386 66 698ft 0kts
01-Oct-17 17:24 35.157895 -114.556386 66 698ft 0kts
01-Oct-17 17:25 35.157895 -114.556386 66 698ft 0kts

Navigation Log

Ident Type
Flight plan parsing failed, navigation log unavailable